King of Scandinavia — OVOL2 — position and weather

sailwx.info

Track history (hours):
 
Tides and Currents Weather Stations Pressure Air Temp Water Temp Dewpoint Dewpoint Depression Visibility Wind Speed Wind Dir Waves Ship Positions

King of Scandinavia

Ship's website: http://www.dfds.co.uk/DSW/EN/OnBoard/na/KING.htm

Last reported at 2015-Sep-02 07:34 UTC. Time now 2015-Sep-02 08:35 UTC.
Position N 52°28' E 004°35'.

Length 166 m; beam 27.6 m; draft 6.2 m.

Type: Passenger vessel. MMSI: 220449000.

Date/timePositionNaut miles runAvg speedWind from/ knotsBaromVisibWave heightAir tempDewpointWater temp
2015-Sep-02 07:34N 52°28' E 004°35'1413.6
2015-Sep-02 06:33N 52°36' E 004°17'15717.5
2015-Sep-01 21:34N 54°11' E 000°47'1818.4
2015-Sep-01 20:33N 54°22' E 000°21'1918.9
2015-Sep-01 19:33N 54°31' W 000°07'2019.4
2015-Sep-01 18:33N 54°42' W 000°36'1919.0
2015-Sep-01 17:33N 54°53' W 001°02'5 0.5
2015-Sep-01 07:13N 54°56' W 001°09'1318.5
2015-Sep-01 06:32N 54°49' W 000°51'1815.9
2015-Sep-01 05:23N 54°39' W 000°24'1315.3
2015-Sep-01 04:33N 54°32' W 000°06'1616.2
2015-Sep-01 03:34N 54°23' E 000°17'1717.2
2015-Sep-01 02:34N 54°14' E 000°42'14916.5
2015-Aug-31 17:33N 52°44' E 004°01'1616.2
2015-Aug-31 16:33N 52°33' E 004°21'1010.3
2015-Aug-31 15:33N 52°28' E 004°35'0 0.0
2015-Aug-31 14:33N 52°28' E 004°35'0 0.0
2015-Aug-31 13:33N 52°28' E 004°35'0 0.0
2015-Aug-31 12:33N 52°28' E 004°35'0 0.0
2015-Aug-31 11:33N 52°28' E 004°35'0 0.0
2015-Aug-31 10:33N 52°28' E 004°35'0 0.0
2015-Aug-31 09:33N 52°28' E 004°35'0 0.0
2015-Aug-31 08:33N 52°28' E 004°35'0 0.2
2015-Aug-31 07:33N 52°28' E 004°35'1212.4
2015-Aug-31 06:33N 52°35' E 004°19'1515.2
2015-Aug-31 05:33N 52°46' E 003°60'5016.0
2015-Aug-31 02:27N 53°17' E 002°56'8517.0
2015-Aug-30 21:27N 54°07' E 000°60'1617.8
2015-Aug-30 20:33N 54°15' E 000°37'1818.0
2015-Aug-30 19:33N 54°24' E 000°10'1918.6
2015-Aug-30 18:33N 54°35' W 000°16'1919.0
2015-Aug-30 17:33N 54°46' W 000°44'1918.7
2015-Aug-30 16:33N 54°56' W 001°11'3 0.3
2015-Aug-30 07:20N 54°58' W 001°14'1519.8
2015-Aug-30 06:33N 54°49' W 000°52'1918.7
2015-Aug-30 05:33N 54°37' W 000°26'1716.6
2015-Aug-30 04:33N 54°30' W 000°01'1616.4
2015-Aug-30 03:34N 54°21' E 000°23'1715.9
2015-Aug-30 02:31N 54°12' E 000°47'9816.0
2015-Aug-29 20:24N 53°15' E 003°01'1214.7
2015-Aug-29 19:33N 53°07' E 003°17'1514.7
2015-Aug-29 18:33N 52°57' E 003°35'1515.1
2015-Aug-29 17:34N 52°48' E 003°55'1615.7
2015-Aug-29 16:33N 52°37' E 004°14'1515.1
2015-Aug-29 15:33N 52°28' E 004°34'1 0.9
2015-Aug-29 14:31N 52°28' E 004°35'0 0.0
2015-Aug-29 13:31N 52°28' E 004°35'0 0.0
2015-Aug-29 12:31N 52°28' E 004°35'0 0.0
2015-Aug-29 11:31N 52°28' E 004°35'0 0.0
2015-Aug-29 10:31N 52°28' E 004°35'0 0.0
2015-Aug-29 09:31N 52°28' E 004°35'0 0.0
2015-Aug-29 08:31N 52°28' E 004°35'0 0.0
2015-Aug-29 07:34N 52°28' E 004°35'1313.0
2015-Aug-29 06:33N 52°35' E 004°18'1818.1
2015-Aug-29 05:33N 52°49' E 003°57'1818.0
2015-Aug-29 04:33N 52°59' E 003°33'11917.1
2015-Aug-28 21:33N 54°10' E 000°51'1716.8
2015-Aug-28 20:33N 54°19' E 000°27'1716.8
2015-Aug-28 19:33N 54°28' E 000°03'1717.3
2015-Aug-28 18:34N 54°38' W 000°22'1817.9
2015-Aug-28 17:33N 54°48' W 000°49'1818.4
2015-Aug-28 16:33N 54°58' W 001°15'1 0.1
2015-Aug-28 07:13N 54°58' W 001°13'1218.4
2015-Aug-28 06:33N 54°51' W 000°56'1818.3
2015-Aug-28 05:33N 54°41' W 000°29'1717.5
2015-Aug-28 04:33N 54°31' W 000°04'1716.9
2015-Aug-28 03:33N 54°22' E 000°20'1616.3
2015-Aug-28 02:33N 54°13' E 000°44'14816.4
2015-Aug-27 17:33N 52°44' E 004°02'1414.2
2015-Aug-27 16:33N 52°35' E 004°19'1211.9
2015-Aug-27 15:33N 52°28' E 004°35'0 0.0
2015-Aug-27 14:32N 52°28' E 004°35'0 0.0
2015-Aug-27 13:32N 52°28' E 004°35'0 0.0
2015-Aug-27 12:32N 52°28' E 004°35'0 0.0
2015-Aug-27 11:32N 52°28' E 004°35'0 0.0
2015-Aug-27 10:32N 52°28' E 004°35'0 0.0
2015-Aug-27 09:32N 52°28' E 004°35'0 0.0
2015-Aug-27 08:32N 52°28' E 004°35'0 0.0
2015-Aug-27 07:33N 52°28' E 004°35'1413.8
2015-Aug-27 06:33N 52°36' E 004°17'1515.3
2015-Aug-27 05:33N 52°46' E 003°57'14017.4
2015-Aug-26 21:33N 54°10' E 000°51'1717.2
2015-Aug-26 20:33N 54°19' E 000°26'1717.2
2015-Aug-26 19:33N 54°29' E 000°01'1717.3
2015-Aug-26 18:33N 54°38' W 000°24'1717.5
2015-Aug-26 17:34N 54°48' W 000°49'1818.1
2015-Aug-26 16:33N 54°58' W 001°16'2 0.2
2015-Aug-26 07:09N 54°57' W 001°13'1016.2
2015-Aug-26 06:33N 54°52' W 000°58'1616.3
2015-Aug-26 05:33N 54°43' W 000°35'1616.1
2015-Aug-26 04:33N 54°34' W 000°12'1616.6
2015-Aug-26 03:33N 54°25' E 000°12'1717.2
2015-Aug-26 02:33N 54°16' E 000°37'15317.0
2015-Aug-25 17:33N 52°44' E 004°03'1414.4
2015-Aug-25 16:33N 52°34' E 004°20'1111.0
2015-Aug-25 15:34N 52°28' E 004°35'0 0.0
2015-Aug-25 14:32N 52°28' E 004°35'0 0.0
2015-Aug-25 13:32N 52°28' E 004°35'0 0.0
2015-Aug-25 12:29N 52°28' E 004°35'0 0.0
2015-Aug-25 11:29N 52°28' E 004°35'0 0.0
2015-Aug-25 10:32N 52°28' E 004°35'0 0.0
2015-Aug-25 09:32N 52°28' E 004°35'0 0.0
2015-Aug-25 08:32N 52°28' E 004°35'0 0.1
2015-Aug-25 07:33N 52°28' E 004°35'1313.0
2015-Aug-25 06:34N 52°36' E 004°18'15316.9
2015-Aug-24 21:31N 54°09' E 000°54'1818.2
2015-Aug-24 20:33N 54°18' E 000°29'1818.1
2015-Aug-24 19:33N 54°28' E 000°03'1817.8
2015-Aug-24 18:33N 54°38' W 000°23'1817.5
2015-Aug-24 17:33N 54°47' W 000°48'1817.6
2015-Aug-24 16:33N 54°57' W 001°14'3 0.3
2015-Aug-24 07:33N 54°59' W 001°17'1717.4
2015-Aug-24 06:33N 54°49' W 000°52'1818.0
2015-Aug-24 05:33N 54°39' W 000°26'1818.0
2015-Aug-24 04:33N 54°29' W 000°00'1615.9
2015-Aug-24 03:33N 54°21' E 000°23'1515.3
2015-Aug-24 02:33N 54°13' E 000°45'15515.3
2015-Aug-23 16:27N 52°38' E 004°12'1415.6
2015-Aug-23 15:34N 52°29' E 004°29'4 3.8
2015-Aug-23 14:32N 52°28' E 004°35'0 0.0
2015-Aug-23 13:32N 52°28' E 004°35'0 0.0
2015-Aug-23 12:32N 52°28' E 004°35'0 0.0
2015-Aug-23 11:29N 52°28' E 004°35'0 0.0
2015-Aug-23 10:32N 52°28' E 004°35'0 0.0
2015-Aug-23 09:32N 52°28' E 004°35'0 0.0
2015-Aug-23 08:32N 52°28' E 004°35'  
Track history (hours):
 
Tides and Currents Weather Stations Pressure Air Temp Water Temp Dewpoint Dewpoint Depression Visibility Wind Speed Wind Dir Waves Ship Positions

King of Scandinavia

Ship's website: http://www.dfds.co.uk/DSW/EN/OnBoard/na/KING.htm

Last reported at 2015-Sep-02 07:34 UTC. Time now 2015-Sep-02 08:35 UTC.
Position N 52°28' E 004°35'.

Length 166 m; beam 27.6 m; draft 6.2 m.

Type: Passenger vessel. MMSI: 220449000.

Date/timePositionNaut miles runAvg speedWind from/ knotsBaromVisibWave heightAir tempDewpointWater temp
2015-Sep-02 07:34N 52°28' E 004°35'1413.6
2015-Sep-02 06:33N 52°36' E 004°17'15717.5
2015-Sep-01 21:34N 54°11' E 000°47'1818.4
2015-Sep-01 20:33N 54°22' E 000°21'1918.9
2015-Sep-01 19:33N 54°31' W 000°07'2019.4
2015-Sep-01 18:33N 54°42' W 000°36'1919.0
2015-Sep-01 17:33N 54°53' W 001°02'5 0.5
2015-Sep-01 07:13N 54°56' W 001°09'1318.5
2015-Sep-01 06:32N 54°49' W 000°51'1815.9
2015-Sep-01 05:23N 54°39' W 000°24'1315.3
2015-Sep-01 04:33N 54°32' W 000°06'1616.2
2015-Sep-01 03:34N 54°23' E 000°17'1717.2
2015-Sep-01 02:34N 54°14' E 000°42'14916.5
2015-Aug-31 17:33N 52°44' E 004°01'1616.2
2015-Aug-31 16:33N 52°33' E 004°21'1010.3
2015-Aug-31 15:33N 52°28' E 004°35'0 0.0
2015-Aug-31 14:33N 52°28' E 004°35'0 0.0
2015-Aug-31 13:33N 52°28' E 004°35'0 0.0
2015-Aug-31 12:33N 52°28' E 004°35'0 0.0
2015-Aug-31 11:33N 52°28' E 004°35'0 0.0
2015-Aug-31 10:33N 52°28' E 004°35'0 0.0
2015-Aug-31 09:33N 52°28' E 004°35'0 0.0
2015-Aug-31 08:33N 52°28' E 004°35'0 0.2
2015-Aug-31 07:33N 52°28' E 004°35'1212.4
2015-Aug-31 06:33N 52°35' E 004°19'1515.2
2015-Aug-31 05:33N 52°46' E 003°60'5016.0
2015-Aug-31 02:27N 53°17' E 002°56'8517.0
2015-Aug-30 21:27N 54°07' E 000°60'1617.8
2015-Aug-30 20:33N 54°15' E 000°37'1818.0
2015-Aug-30 19:33N 54°24' E 000°10'1918.6
2015-Aug-30 18:33N 54°35' W 000°16'1919.0
2015-Aug-30 17:33N 54°46' W 000°44'1918.7
2015-Aug-30 16:33N 54°56' W 001°11'3 0.3
2015-Aug-30 07:20N 54°58' W 001°14'1519.8
2015-Aug-30 06:33N 54°49' W 000°52'1918.7
2015-Aug-30 05:33N 54°37' W 000°26'1716.6
2015-Aug-30 04:33N 54°30' W 000°01'1616.4
2015-Aug-30 03:34N 54°21' E 000°23'1715.9
2015-Aug-30 02:31N 54°12' E 000°47'9816.0
2015-Aug-29 20:24N 53°15' E 003°01'1214.7
2015-Aug-29 19:33N 53°07' E 003°17'1514.7
2015-Aug-29 18:33N 52°57' E 003°35'1515.1
2015-Aug-29 17:34N 52°48' E 003°55'1615.7
2015-Aug-29 16:33N 52°37' E 004°14'1515.1
2015-Aug-29 15:33N 52°28' E 004°34'1 0.9
2015-Aug-29 14:31N 52°28' E 004°35'0 0.0
2015-Aug-29 13:31N 52°28' E 004°35'0 0.0
2015-Aug-29 12:31N 52°28' E 004°35'0 0.0
2015-Aug-29 11:31N 52°28' E 004°35'0 0.0
2015-Aug-29 10:31N 52°28' E 004°35'0 0.0
2015-Aug-29 09:31N 52°28' E 004°35'0 0.0
2015-Aug-29 08:31N 52°28' E 004°35'0 0.0
2015-Aug-29 07:34N 52°28' E 004°35'1313.0
2015-Aug-29 06:33N 52°35' E 004°18'1818.1
2015-Aug-29 05:33N 52°49' E 003°57'1818.0
2015-Aug-29 04:33N 52°59' E 003°33'11917.1
2015-Aug-28 21:33N 54°10' E 000°51'1716.8
2015-Aug-28 20:33N 54°19' E 000°27'1716.8
2015-Aug-28 19:33N 54°28' E 000°03'1717.3
2015-Aug-28 18:34N 54°38' W 000°22'1817.9
2015-Aug-28 17:33N 54°48' W 000°49'1818.4
2015-Aug-28 16:33N 54°58' W 001°15'1 0.1
2015-Aug-28 07:13N 54°58' W 001°13'1218.4
2015-Aug-28 06:33N 54°51' W 000°56'1818.3
2015-Aug-28 05:33N 54°41' W 000°29'1717.5
2015-Aug-28 04:33N 54°31' W 000°04'1716.9
2015-Aug-28 03:33N 54°22' E 000°20'1616.3
2015-Aug-28 02:33N 54°13' E 000°44'14816.4
2015-Aug-27 17:33N 52°44' E 004°02'1414.2
2015-Aug-27 16:33N 52°35' E 004°19'1211.9
2015-Aug-27 15:33N 52°28' E 004°35'0 0.0
2015-Aug-27 14:32N 52°28' E 004°35'0 0.0
2015-Aug-27 13:32N 52°28' E 004°35'0 0.0
2015-Aug-27 12:32N 52°28' E 004°35'0 0.0
2015-Aug-27 11:32N 52°28' E 004°35'0 0.0
2015-Aug-27 10:32N 52°28' E 004°35'0 0.0
2015-Aug-27 09:32N 52°28' E 004°35'0 0.0
2015-Aug-27 08:32N 52°28' E 004°35'0 0.0
2015-Aug-27 07:33N 52°28' E 004°35'1413.8
2015-Aug-27 06:33N 52°36' E 004°17'1515.3
2015-Aug-27 05:33N 52°46' E 003°57'14017.4
2015-Aug-26 21:33N 54°10' E 000°51'1717.2
2015-Aug-26 20:33N 54°19' E 000°26'1717.2
2015-Aug-26 19:33N 54°29' E 000°01'1717.3
2015-Aug-26 18:33N 54°38' W 000°24'1717.5
2015-Aug-26 17:34N 54°48' W 000°49'1818.1
2015-Aug-26 16:33N 54°58' W 001°16'2 0.2
2015-Aug-26 07:09N 54°57' W 001°13'1016.2
2015-Aug-26 06:33N 54°52' W 000°58'1616.3
2015-Aug-26 05:33N 54°43' W 000°35'1616.1
2015-Aug-26 04:33N 54°34' W 000°12'1616.6
2015-Aug-26 03:33N 54°25' E 000°12'1717.2
2015-Aug-26 02:33N 54°16' E 000°37'15317.0
2015-Aug-25 17:33N 52°44' E 004°03'1414.4
2015-Aug-25 16:33N 52°34' E 004°20'1111.0
2015-Aug-25 15:34N 52°28' E 004°35'0 0.0
2015-Aug-25 14:32N 52°28' E 004°35'0 0.0
2015-Aug-25 13:32N 52°28' E 004°35'0 0.0
2015-Aug-25 12:29N 52°28' E 004°35'0 0.0
2015-Aug-25 11:29N 52°28' E 004°35'0 0.0
2015-Aug-25 10:32N 52°28' E 004°35'0 0.0
2015-Aug-25 09:32N 52°28' E 004°35'0 0.0
2015-Aug-25 08:32N 52°28' E 004°35'0 0.1
2015-Aug-25 07:33N 52°28' E 004°35'1313.0
2015-Aug-25 06:34N 52°36' E 004°18'15316.9
2015-Aug-24 21:31N 54°09' E 000°54'1818.2
2015-Aug-24 20:33N 54°18' E 000°29'1818.1
2015-Aug-24 19:33N 54°28' E 000°03'1817.8
2015-Aug-24 18:33N 54°38' W 000°23'1817.5
2015-Aug-24 17:33N 54°47' W 000°48'1817.6
2015-Aug-24 16:33N 54°57' W 001°14'3 0.3
2015-Aug-24 07:33N 54°59' W 001°17'1717.4
2015-Aug-24 06:33N 54°49' W 000°52'1818.0
2015-Aug-24 05:33N 54°39' W 000°26'1818.0
2015-Aug-24 04:33N 54°29' W 000°00'1615.9
2015-Aug-24 03:33N 54°21' E 000°23'1515.3
2015-Aug-24 02:33N 54°13' E 000°45'15515.3
2015-Aug-23 16:27N 52°38' E 004°12'1415.6
2015-Aug-23 15:34N 52°29' E 004°29'4 3.8
2015-Aug-23 14:32N 52°28' E 004°35'0 0.0
2015-Aug-23 13:32N 52°28' E 004°35'0 0.0
2015-Aug-23 12:32N 52°28' E 004°35'0 0.0
2015-Aug-23 11:29N 52°28' E 004°35'0 0.0
2015-Aug-23 10:32N 52°28' E 004°35'0 0.0
2015-Aug-23 09:32N 52°28' E 004°35'0 0.0
2015-Aug-23 08:32N 52°28' E 004°35'  

Dump ship's entire track history